sensor_id;sensor_type;location;lat;lon;timestamp;P1;durP1;ratioP1;P2;durP2;ratioP2
11877;SDS011;5998;42.676;23.268;2023-02-01T00:00:10;3.77;;;3.30;;
11877;SDS011;5998;42.676;23.268;2023-02-01T00:02:39;3.83;;;3.20;;
11877;SDS011;5998;42.676;23.268;2023-02-01T00:05:06;6.03;;;3.97;;
11877;SDS011;5998;42.676;23.268;2023-02-01T00:07:34;5.27;;;3.70;;
11877;SDS011;5998;42.676;23.268;2023-02-01T00:10:00;4.10;;;3.30;;
11877;SDS011;5998;42.676;23.268;2023-02-01T00:12:28;4.07;;;3.10;;
11877;SDS011;5998;42.676;23.268;2023-02-01T00:14:55;5.30;;;3.70;;
11877;SDS011;5998;42.676;23.268;2023-02-01T00:17:22;3.73;;;3.00;;
11877;SDS011;5998;42.676;23.268;2023-02-01T00:19:50;5.40;;;3.93;;
11877;SDS011;5998;42.676;23.268;2023-02-01T00:22:17;3.73;;;3.30;;
11877;SDS011;5998;42.676;23.268;2023-02-01T00:24:44;3.70;;;3.40;;
11877;SDS011;5998;42.676;23.268;2023-02-01T00:27:11;4.10;;;2.97;;
11877;SDS011;5998;42.676;23.268;2023-02-01T00:29:42;5.00;;;3.43;;
11877;SDS011;5998;42.676;23.268;2023-02-01T00:32:09;4.93;;;3.33;;
11877;SDS011;5998;42.676;23.268;2023-02-01T00:34:36;5.37;;;3.47;;
11877;SDS011;5998;42.676;23.268;2023-02-01T00:37:04;4.10;;;3.37;;
11877;SDS011;5998;42.676;23.268;2023-02-01T00:39:31;4.50;;;3.30;;
11877;SDS011;5998;42.676;23.268;2023-02-01T00:41:59;3.67;;;3.00;;
11877;SDS011;5998;42.676;23.268;2023-02-01T00:44:26;4.73;;;3.03;;
11877;SDS011;5998;42.676;23.268;2023-02-01T00:46:58;3.77;;;3.07;;
11877;SDS011;5998;42.676;23.268;2023-02-01T00:49:25;4.10;;;3.10;;
11877;SDS011;5998;42.676;23.268;2023-02-01T00:51:51;2.97;;;2.77;;
11877;SDS011;5998;42.676;23.268;2023-02-01T00:54:19;3.53;;;2.90;;
11877;SDS011;5998;42.676;23.268;2023-02-01T00:56:46;3.33;;;2.93;;
11877;SDS011;5998;42.676;23.268;2023-02-01T00:59:13;3.33;;;2.77;;
11877;SDS011;5998;42.676;23.268;2023-02-01T01:01:39;3.43;;;2.60;;
11877;SDS011;5998;42.676;23.268;2023-02-01T01:04:06;5.80;;;3.17;;
11877;SDS011;5998;42.676;23.268;2023-02-01T01:06:33;5.30;;;2.80;;
11877;SDS011;5998;42.676;23.268;2023-02-01T01:09:01;3.53;;;2.90;;
11877;SDS011;5998;42.676;23.268;2023-02-01T01:11:32;5.03;;;2.60;;
11877;SDS011;5998;42.676;23.268;2023-02-01T01:14:01;2.60;;;2.40;;
11877;SDS011;5998;42.676;23.268;2023-02-01T01:16:30;4.03;;;2.47;;
11877;SDS011;5998;42.676;23.268;2023-02-01T01:18:57;4.37;;;2.53;;
11877;SDS011;5998;42.676;23.268;2023-02-01T01:21:25;4.17;;;2.80;;
11877;SDS011;5998;42.676;23.268;2023-02-01T01:23:52;2.87;;;2.57;;
11877;SDS011;5998;42.676;23.268;2023-02-01T01:26:20;3.47;;;2.80;;
11877;SDS011;5998;42.676;23.268;2023-02-01T01:28:50;2.70;;;2.50;;
11877;SDS011;5998;42.676;23.268;2023-02-01T01:31:17;3.87;;;2.53;;
11877;SDS011;5998;42.676;23.268;2023-02-01T01:33:47;2.50;;;2.30;;
11877;SDS011;5998;42.676;23.268;2023-02-01T01:36:15;4.87;;;2.50;;
11877;SDS011;5998;42.676;23.268;2023-02-01T01:38:42;2.73;;;2.53;;
11877;SDS011;5998;42.676;23.268;2023-02-01T01:41:12;2.63;;;2.40;;
11877;SDS011;5998;42.676;23.268;2023-02-01T01:43:52;2.50;;;2.30;;
11877;SDS011;5998;42.676;23.268;2023-02-01T01:46:21;4.10;;;2.60;;
11877;SDS011;5998;42.676;23.268;2023-02-01T01:48:50;3.20;;;2.50;;
11877;SDS011;5998;42.676;23.268;2023-02-01T01:51:23;4.00;;;2.50;;
11877;SDS011;5998;42.676;23.268;2023-02-01T01:53:54;2.43;;;2.23;;
11877;SDS011;5998;42.676;23.268;2023-02-01T01:56:26;3.30;;;2.17;;
11877;SDS011;5998;42.676;23.268;2023-02-01T01:58:56;6.17;;;2.83;;
11877;SDS011;5998;42.676;23.268;2023-02-01T02:01:23;2.70;;;2.20;;
11877;SDS011;5998;42.676;23.268;2023-02-01T02:03:50;3.07;;;2.67;;
11877;SDS011;5998;42.676;23.268;2023-02-01T02:06:20;2.53;;;2.33;;
11877;SDS011;5998;42.676;23.268;2023-02-01T02:08:59;3.30;;;2.53;;
11877;SDS011;5998;42.676;23.268;2023-02-01T02:11:25;2.50;;;2.20;;
11877;SDS011;5998;42.676;23.268;2023-02-01T02:13:53;2.73;;;2.53;;
11877;SDS011;5998;42.676;23.268;2023-02-01T02:16:37;3.27;;;2.57;;
11877;SDS011;5998;42.676;23.268;2023-02-01T02:19:19;2.60;;;2.40;;
11877;SDS011;5998;42.676;23.268;2023-02-01T02:25:20;4.03;;;2.50;;
11877;SDS011;5998;42.676;23.268;2023-02-01T02:27:59;2.63;;;2.40;;
11877;SDS011;5998;42.676;23.268;2023-02-01T02:30:45;4.10;;;2.63;;
11877;SDS011;5998;42.676;23.268;2023-02-01T02:36:31;4.43;;;2.60;;
11877;SDS011;5998;42.676;23.268;2023-02-01T02:39:06;2.60;;;2.00;;
11877;SDS011;5998;42.676;23.268;2023-02-01T02:41:40;3.33;;;2.10;;
11877;SDS011;5998;42.676;23.268;2023-02-01T02:44:33;2.50;;;2.30;;
11877;SDS011;5998;42.676;23.268;2023-02-01T02:47:24;2.47;;;2.27;;
11877;SDS011;5998;42.676;23.268;2023-02-01T02:49:58;3.03;;;2.70;;
11877;SDS011;5998;42.676;23.268;2023-02-01T02:52:52;2.83;;;2.60;;
11877;SDS011;5998;42.676;23.268;2023-02-01T02:55:42;2.50;;;2.30;;
11877;SDS011;5998;42.676;23.268;2023-02-01T02:58:10;3.20;;;2.30;;
11877;SDS011;5998;42.676;23.268;2023-02-01T03:00:55;2.90;;;2.20;;
11877;SDS011;5998;42.676;23.268;2023-02-01T03:03:40;2.23;;;1.90;;
11877;SDS011;5998;42.676;23.268;2023-02-01T03:06:26;2.17;;;2.07;;
11877;SDS011;5998;42.676;23.268;2023-02-01T03:08:54;3.47;;;2.00;;
11877;SDS011;5998;42.676;23.268;2023-02-01T03:11:24;3.53;;;2.10;;
11877;SDS011;5998;42.676;23.268;2023-02-01T03:14:13;2.57;;;1.90;;
11877;SDS011;5998;42.676;23.268;2023-02-01T03:16:43;1.97;;;1.83;;
11877;SDS011;5998;42.676;23.268;2023-02-01T03:19:17;3.67;;;2.30;;
11877;SDS011;5998;42.676;23.268;2023-02-01T03:21:48;2.67;;;2.30;;
11877;SDS011;5998;42.676;23.268;2023-02-01T03:24:20;2.13;;;2.00;;
11877;SDS011;5998;42.676;23.268;2023-02-01T03:26:58;2.43;;;2.23;;
11877;SDS011;5998;42.676;23.268;2023-02-01T03:29:33;2.77;;;2.10;;
11877;SDS011;5998;42.676;23.268;2023-02-01T03:32:06;4.03;;;2.20;;
11877;SDS011;5998;42.676;23.268;2023-02-01T03:34:34;2.83;;;2.50;;
11877;SDS011;5998;42.676;23.268;2023-02-01T03:37:01;2.93;;;2.47;;
11877;SDS011;5998;42.676;23.268;2023-02-01T03:39:34;2.33;;;2.07;;
11877;SDS011;5998;42.676;23.268;2023-02-01T03:42:04;2.80;;;2.20;;
11877;SDS011;5998;42.676;23.268;2023-02-01T03:44:36;3.00;;;2.23;;
11877;SDS011;5998;42.676;23.268;2023-02-01T03:47:08;2.80;;;2.27;;
11877;SDS011;5998;42.676;23.268;2023-02-01T03:49:39;2.70;;;2.10;;
11877;SDS011;5998;42.676;23.268;2023-02-01T03:52:10;3.97;;;2.07;;
11877;SDS011;5998;42.676;23.268;2023-02-01T03:54:41;1.90;;;1.70;;
11877;SDS011;5998;42.676;23.268;2023-02-01T03:57:09;2.47;;;1.87;;
11877;SDS011;5998;42.676;23.268;2023-02-01T03:59:39;1.83;;;1.67;;
11877;SDS011;5998;42.676;23.268;2023-02-01T04:02:06;2.17;;;1.97;;
11877;SDS011;5998;42.676;23.268;2023-02-01T04:04:33;3.27;;;2.40;;
11877;SDS011;5998;42.676;23.268;2023-02-01T04:07:00;2.87;;;1.87;;
11877;SDS011;5998;42.676;23.268;2023-02-01T04:09:27;4.07;;;2.00;;
11877;SDS011;5998;42.676;23.268;2023-02-01T04:11:55;2.33;;;2.10;;
11877;SDS011;5998;42.676;23.268;2023-02-01T04:14:22;2.10;;;1.90;;
11877;SDS011;5998;42.676;23.268;2023-02-01T04:16:48;2.27;;;2.07;;
11877;SDS011;5998;42.676;23.268;2023-02-01T04:19:15;4.73;;;2.10;;
11877;SDS011;5998;42.676;23.268;2023-02-01T04:21:42;3.57;;;2.30;;
11877;SDS011;5998;42.676;23.268;2023-02-01T04:24:09;2.43;;;2.10;;
11877;SDS011;5998;42.676;23.268;2023-02-01T04:26:35;3.30;;;2.37;;
11877;SDS011;5998;42.676;23.268;2023-02-01T04:29:04;2.67;;;2.43;;
11877;SDS011;5998;42.676;23.268;2023-02-01T04:31:30;3.70;;;2.43;;
11877;SDS011;5998;42.676;23.268;2023-02-01T04:33:57;3.60;;;2.37;;
11877;SDS011;5998;42.676;23.268;2023-02-01T04:36:24;5.60;;;2.83;;
11877;SDS011;5998;42.676;23.268;2023-02-01T04:38:51;4.70;;;2.60;;
11877;SDS011;5998;42.676;23.268;2023-02-01T04:41:18;6.73;;;2.57;;
11877;SDS011;5998;42.676;23.268;2023-02-01T04:43:45;3.77;;;2.60;;
11877;SDS011;5998;42.676;23.268;2023-02-01T04:46:13;3.33;;;2.97;;
11877;SDS011;5998;42.676;23.268;2023-02-01T04:48:40;3.23;;;2.60;;
11877;SDS011;5998;42.676;23.268;2023-02-01T04:51:07;3.00;;;2.60;;
11877;SDS011;5998;42.676;23.268;2023-02-01T04:53:35;4.03;;;2.70;;
11877;SDS011;5998;42.676;23.268;2023-02-01T04:56:01;4.83;;;2.70;;
11877;SDS011;5998;42.676;23.268;2023-02-01T04:58:28;3.77;;;2.80;;
11877;SDS011;5998;42.676;23.268;2023-02-01T05:00:55;3.13;;;2.77;;
11877;SDS011;5998;42.676;23.268;2023-02-01T05:03:23;7.13;;;3.27;;
11877;SDS011;5998;42.676;23.268;2023-02-01T05:05:50;4.40;;;3.30;;
11877;SDS011;5998;42.676;23.268;2023-02-01T05:08:18;4.13;;;2.90;;
11877;SDS011;5998;42.676;23.268;2023-02-01T05:10:47;4.10;;;3.20;;
11877;SDS011;5998;42.676;23.268;2023-02-01T05:13:14;5.50;;;3.43;;
11877;SDS011;5998;42.676;23.268;2023-02-01T05:15:58;3.30;;;2.93;;
11877;SDS011;5998;42.676;23.268;2023-02-01T05:18:26;4.27;;;3.00;;
11877;SDS011;5998;42.676;23.268;2023-02-01T05:20:53;5.60;;;3.30;;
11877;SDS011;5998;42.676;23.268;2023-02-01T05:23:20;5.47;;;3.03;;
11877;SDS011;5998;42.676;23.268;2023-02-01T05:25:46;3.43;;;2.93;;
11877;SDS011;5998;42.676;23.268;2023-02-01T05:28:13;4.17;;;3.10;;
11877;SDS011;5998;42.676;23.268;2023-02-01T05:30:40;6.43;;;2.60;;
11877;SDS011;5998;42.676;23.268;2023-02-01T05:33:06;4.17;;;3.00;;
11877;SDS011;5998;42.676;23.268;2023-02-01T05:35:34;3.97;;;3.30;;
11877;SDS011;5998;42.676;23.268;2023-02-01T05:38:01;3.63;;;2.77;;
11877;SDS011;5998;42.676;23.268;2023-02-01T05:40:28;5.63;;;2.43;;
11877;SDS011;5998;42.676;23.268;2023-02-01T05:42:55;4.07;;;2.93;;
11877;SDS011;5998;42.676;23.268;2023-02-01T05:45:21;6.57;;;3.70;;
11877;SDS011;5998;42.676;23.268;2023-02-01T05:47:48;2.50;;;2.30;;
11877;SDS011;5998;42.676;23.268;2023-02-01T05:50:15;3.93;;;2.70;;
11877;SDS011;5998;42.676;23.268;2023-02-01T05:52:43;6.27;;;3.00;;
11877;SDS011;5998;42.676;23.268;2023-02-01T05:55:10;3.40;;;2.77;;
11877;SDS011;5998;42.676;23.268;2023-02-01T05:57:36;4.23;;;2.80;;
11877;SDS011;5998;42.676;23.268;2023-02-01T06:00:04;4.57;;;2.60;;
11877;SDS011;5998;42.676;23.268;2023-02-01T06:02:31;4.67;;;2.30;;
11877;SDS011;5998;42.676;23.268;2023-02-01T06:04:58;3.70;;;3.00;;
11877;SDS011;5998;42.676;23.268;2023-02-01T06:07:25;4.73;;;2.60;;
11877;SDS011;5998;42.676;23.268;2023-02-01T06:09:53;5.00;;;3.07;;
11877;SDS011;5998;42.676;23.268;2023-02-01T06:12:19;6.07;;;3.10;;
11877;SDS011;5998;42.676;23.268;2023-02-01T06:14:46;3.70;;;2.50;;
11877;SDS011;5998;42.676;23.268;2023-02-01T06:17:13;6.30;;;2.93;;
11877;SDS011;5998;42.676;23.268;2023-02-01T06:19:39;3.17;;;2.53;;
11877;SDS011;5998;42.676;23.268;2023-02-01T06:22:06;5.13;;;3.57;;
11877;SDS011;5998;42.676;23.268;2023-02-01T06:24:33;4.87;;;2.63;;
11877;SDS011;5998;42.676;23.268;2023-02-01T06:27:01;7.03;;;2.73;;
11877;SDS011;5998;42.676;23.268;2023-02-01T06:29:28;3.03;;;2.00;;
11877;SDS011;5998;42.676;23.268;2023-02-01T06:31:54;3.47;;;2.40;;
11877;SDS011;5998;42.676;23.268;2023-02-01T06:34:21;3.17;;;2.40;;
11877;SDS011;5998;42.676;23.268;2023-02-01T06:36:48;7.33;;;3.53;;
11877;SDS011;5998;42.676;23.268;2023-02-01T06:39:15;4.83;;;2.63;;
11877;SDS011;5998;42.676;23.268;2023-02-01T06:41:42;3.83;;;2.77;;
11877;SDS011;5998;42.676;23.268;2023-02-01T06:44:13;3.67;;;2.70;;
11877;SDS011;5998;42.676;23.268;2023-02-01T06:46:39;5.80;;;2.93;;
11877;SDS011;5998;42.676;23.268;2023-02-01T06:49:06;5.97;;;3.27;;
11877;SDS011;5998;42.676;23.268;2023-02-01T06:51:33;11.03;;;3.27;;
11877;SDS011;5998;42.676;23.268;2023-02-01T06:54:00;5.07;;;3.00;;
11877;SDS011;5998;42.676;23.268;2023-02-01T06:56:27;5.93;;;3.00;;
11877;SDS011;5998;42.676;23.268;2023-02-01T06:58:56;10.00;;;3.67;;
11877;SDS011;5998;42.676;23.268;2023-02-01T07:01:24;2.37;;;2.17;;
11877;SDS011;5998;42.676;23.268;2023-02-01T07:03:50;4.57;;;2.80;;
11877;SDS011;5998;42.676;23.268;2023-02-01T07:06:17;5.40;;;2.80;;
11877;SDS011;5998;42.676;23.268;2023-02-01T07:08:44;5.30;;;2.63;;
11877;SDS011;5998;42.676;23.268;2023-02-01T07:11:11;8.40;;;2.93;;
11877;SDS011;5998;42.676;23.268;2023-02-01T07:13:40;3.17;;;2.60;;
11877;SDS011;5998;42.676;23.268;2023-02-01T07:16:08;5.60;;;3.10;;
11877;SDS011;5998;42.676;23.268;2023-02-01T07:18:38;5.87;;;3.80;;
11877;SDS011;5998;42.676;23.268;2023-02-01T07:21:05;4.40;;;3.30;;
11877;SDS011;5998;42.676;23.268;2023-02-01T07:23:32;7.23;;;3.47;;
11877;SDS011;5998;42.676;23.268;2023-02-01T07:26:00;6.10;;;3.60;;
11877;SDS011;5998;42.676;23.268;2023-02-01T07:28:28;3.90;;;2.80;;
11877;SDS011;5998;42.676;23.268;2023-02-01T07:31:01;4.93;;;2.60;;
11877;SDS011;5998;42.676;23.268;2023-02-01T07:33:29;4.80;;;2.90;;
11877;SDS011;5998;42.676;23.268;2023-02-01T07:35:57;5.60;;;2.83;;
11877;SDS011;5998;42.676;23.268;2023-02-01T07:38:23;5.10;;;2.50;;
11877;SDS011;5998;42.676;23.268;2023-02-01T07:40:50;6.73;;;2.63;;
11877;SDS011;5998;42.676;23.268;2023-02-01T07:43:17;5.20;;;2.83;;
11877;SDS011;5998;42.676;23.268;2023-02-01T07:45:49;5.80;;;2.50;;
11877;SDS011;5998;42.676;23.268;2023-02-01T07:48:17;5.73;;;2.73;;
11877;SDS011;5998;42.676;23.268;2023-02-01T07:50:43;2.60;;;2.40;;
11877;SDS011;5998;42.676;23.268;2023-02-01T07:53:11;4.83;;;2.90;;
11877;SDS011;5998;42.676;23.268;2023-02-01T07:55:38;5.13;;;3.43;;
11877;SDS011;5998;42.676;23.268;2023-02-01T07:58:05;4.67;;;2.50;;
11877;SDS011;5998;42.676;23.268;2023-02-01T08:00:32;3.80;;;2.73;;
11877;SDS011;5998;42.676;23.268;2023-02-01T08:03:16;5.57;;;3.00;;
11877;SDS011;5998;42.676;23.268;2023-02-01T08:05:43;6.30;;;2.73;;
11877;SDS011;5998;42.676;23.268;2023-02-01T08:08:11;2.67;;;2.03;;
11877;SDS011;5998;42.676;23.268;2023-02-01T08:10:38;3.93;;;3.10;;
11877;SDS011;5998;42.676;23.268;2023-02-01T08:13:04;6.70;;;3.10;;
11877;SDS011;5998;42.676;23.268;2023-02-01T08:15:31;3.10;;;2.13;;
11877;SDS011;5998;42.676;23.268;2023-02-01T08:17:58;7.47;;;3.03;;
11877;SDS011;5998;42.676;23.268;2023-02-01T08:20:26;3.50;;;2.10;;
11877;SDS011;5998;42.676;23.268;2023-02-01T08:22:53;3.97;;;2.00;;
11877;SDS011;5998;42.676;23.268;2023-02-01T08:25:22;3.70;;;1.93;;
11877;SDS011;5998;42.676;23.268;2023-02-01T08:27:49;3.93;;;2.10;;
11877;SDS011;5998;42.676;23.268;2023-02-01T08:30:17;3.00;;;2.00;;
11877;SDS011;5998;42.676;23.268;2023-02-01T08:32:43;2.97;;;2.20;;
11877;SDS011;5998;42.676;23.268;2023-02-01T08:35:10;3.00;;;2.40;;
11877;SDS011;5998;42.676;23.268;2023-02-01T08:37:37;3.93;;;2.20;;
11877;SDS011;5998;42.676;23.268;2023-02-01T08:40:04;7.70;;;2.60;;
11877;SDS011;5998;42.676;23.268;2023-02-01T08:42:33;4.60;;;2.40;;
11877;SDS011;5998;42.676;23.268;2023-02-01T08:45:19;6.43;;;2.80;;
11877;SDS011;5998;42.676;23.268;2023-02-01T08:47:47;7.03;;;2.30;;
11877;SDS011;5998;42.676;23.268;2023-02-01T08:50:14;5.07;;;2.10;;
11877;SDS011;5998;42.676;23.268;2023-02-01T08:52:41;2.60;;;1.77;;
11877;SDS011;5998;42.676;23.268;2023-02-01T08:55:08;2.10;;;1.90;;
11877;SDS011;5998;42.676;23.268;2023-02-01T08:57:37;3.40;;;2.57;;
11877;SDS011;5998;42.676;23.268;2023-02-01T09:00:06;4.73;;;3.10;;
11877;SDS011;5998;42.676;23.268;2023-02-01T09:02:35;5.53;;;2.43;;
11877;SDS011;5998;42.676;23.268;2023-02-01T09:05:02;2.30;;;1.50;;
11877;SDS011;5998;42.676;23.268;2023-02-01T09:07:30;5.80;;;2.67;;
11877;SDS011;5998;42.676;23.268;2023-02-01T09:09:57;4.27;;;2.60;;
11877;SDS011;5998;42.676;23.268;2023-02-01T09:12:25;6.13;;;2.57;;
11877;SDS011;5998;42.676;23.268;2023-02-01T09:14:54;4.90;;;2.80;;
11877;SDS011;5998;42.676;23.268;2023-02-01T09:17:21;4.27;;;2.27;;
11877;SDS011;5998;42.676;23.268;2023-02-01T09:19:47;3.93;;;2.37;;
11877;SDS011;5998;42.676;23.268;2023-02-01T09:22:14;5.47;;;2.30;;
11877;SDS011;5998;42.676;23.268;2023-02-01T09:24:41;5.10;;;3.03;;
11877;SDS011;5998;42.676;23.268;2023-02-01T09:27:08;3.87;;;2.77;;
11877;SDS011;5998;42.676;23.268;2023-02-01T09:29:34;5.00;;;2.23;;
11877;SDS011;5998;42.676;23.268;2023-02-01T09:32:03;10.60;;;4.20;;
11877;SDS011;5998;42.676;23.268;2023-02-01T09:34:31;9.73;;;3.77;;
11877;SDS011;5998;42.676;23.268;2023-02-01T09:36:58;8.30;;;4.00;;
11877;SDS011;5998;42.676;23.268;2023-02-01T09:39:25;2.17;;;1.93;;
11877;SDS011;5998;42.676;23.268;2023-02-01T09:41:55;3.07;;;2.47;;
11877;SDS011;5998;42.676;23.268;2023-02-01T09:44:30;3.10;;;1.83;;
11877;SDS011;5998;42.676;23.268;2023-02-01T09:47:11;5.20;;;2.13;;
11877;SDS011;5998;42.676;23.268;2023-02-01T09:49:42;2.67;;;1.80;;
11877;SDS011;5998;42.676;23.268;2023-02-01T09:52:16;10.03;;;2.20;;
11877;SDS011;5998;42.676;23.268;2023-02-01T09:54:47;4.53;;;1.80;;
11877;SDS011;5998;42.676;23.268;2023-02-01T09:57:23;4.43;;;2.30;;
11877;SDS011;5998;42.676;23.268;2023-02-01T09:59:53;3.80;;;2.00;;
11877;SDS011;5998;42.676;23.268;2023-02-01T10:02:28;6.10;;;2.60;;
11877;SDS011;5998;42.676;23.268;2023-02-01T10:04:57;4.90;;;2.53;;
11877;SDS011;5998;42.676;23.268;2023-02-01T10:07:26;4.07;;;2.10;;
11877;SDS011;5998;42.676;23.268;2023-02-01T10:10:01;2.70;;;2.30;;
11877;SDS011;5998;42.676;23.268;2023-02-01T10:12:45;8.90;;;2.97;;
11877;SDS011;5998;42.676;23.268;2023-02-01T10:15:38;6.67;;;2.60;;
11877;SDS011;5998;42.676;23.268;2023-02-01T10:18:18;4.37;;;2.30;;
11877;SDS011;5998;42.676;23.268;2023-02-01T10:21:12;6.97;;;2.50;;
11877;SDS011;5998;42.676;23.268;2023-02-01T10:26:59;4.40;;;2.07;;
11877;SDS011;5998;42.676;23.268;2023-02-01T10:29:32;5.93;;;2.07;;
11877;SDS011;5998;42.676;23.268;2023-02-01T10:32:02;6.37;;;2.90;;
11877;SDS011;5998;42.676;23.268;2023-02-01T10:34:39;5.50;;;2.50;;
11877;SDS011;5998;42.676;23.268;2023-02-01T10:37:14;6.47;;;3.07;;
11877;SDS011;5998;42.676;23.268;2023-02-01T10:39:49;6.20;;;2.90;;
11877;SDS011;5998;42.676;23.268;2023-02-01T10:42:20;5.10;;;2.50;;
11877;SDS011;5998;42.676;23.268;2023-02-01T10:44:51;3.50;;;2.33;;
11877;SDS011;5998;42.676;23.268;2023-02-01T10:47:19;5.00;;;2.80;;
11877;SDS011;5998;42.676;23.268;2023-02-01T10:49:49;4.50;;;2.30;;
11877;SDS011;5998;42.676;23.268;2023-02-01T10:52:25;5.00;;;2.57;;
11877;SDS011;5998;42.676;23.268;2023-02-01T10:57:56;9.30;;;3.77;;
11877;SDS011;5998;42.676;23.268;2023-02-01T11:00:24;6.67;;;2.87;;
11877;SDS011;5998;42.676;23.268;2023-02-01T11:02:51;3.37;;;2.43;;
11877;SDS011;5998;42.676;23.268;2023-02-01T11:05:20;5.43;;;1.93;;
11877;SDS011;5998;42.676;23.268;2023-02-01T11:07:49;2.80;;;1.80;;
11877;SDS011;5998;42.676;23.268;2023-02-01T11:10:35;2.80;;;1.93;;
11877;SDS011;5998;42.676;23.268;2023-02-01T11:13:04;5.83;;;2.23;;
11877;SDS011;5998;42.676;23.268;2023-02-01T11:15:31;4.40;;;2.03;;
11877;SDS011;5998;42.676;23.268;2023-02-01T11:17:58;3.00;;;1.80;;
11877;SDS011;5998;42.676;23.268;2023-02-01T11:20:42;6.23;;;2.40;;
11877;SDS011;5998;42.676;23.268;2023-02-01T11:23:13;2.57;;;2.10;;
11877;SDS011;5998;42.676;23.268;2023-02-01T11:25:47;3.00;;;2.17;;
11877;SDS011;5998;42.676;23.268;2023-02-01T11:28:15;1.63;;;1.53;;
11877;SDS011;5998;42.676;23.268;2023-02-01T11:30:43;4.90;;;2.43;;
11877;SDS011;5998;42.676;23.268;2023-02-01T11:33:13;4.30;;;2.00;;
11877;SDS011;5998;42.676;23.268;2023-02-01T11:35:44;3.17;;;2.20;;
11877;SDS011;5998;42.676;23.268;2023-02-01T11:38:18;3.50;;;2.23;;
11877;SDS011;5998;42.676;23.268;2023-02-01T11:40:47;5.40;;;2.47;;
11877;SDS011;5998;42.676;23.268;2023-02-01T11:43:16;2.63;;;1.67;;
11877;SDS011;5998;42.676;23.268;2023-02-01T11:45:53;3.00;;;1.90;;
11877;SDS011;5998;42.676;23.268;2023-02-01T11:48:21;4.70;;;2.07;;
11877;SDS011;5998;42.676;23.268;2023-02-01T11:50:55;2.63;;;1.60;;
11877;SDS011;5998;42.676;23.268;2023-02-01T11:53:39;3.40;;;1.77;;
11877;SDS011;5998;42.676;23.268;2023-02-01T11:56:24;2.17;;;1.67;;
11877;SDS011;5998;42.676;23.268;2023-02-01T11:59:04;2.17;;;1.47;;
11877;SDS011;5998;42.676;23.268;2023-02-01T12:01:43;1.50;;;1.40;;
11877;SDS011;5998;42.676;23.268;2023-02-01T12:07:34;2.47;;;1.63;;
11877;SDS011;5998;42.676;23.268;2023-02-01T12:10:18;3.73;;;1.73;;
11877;SDS011;5998;42.676;23.268;2023-02-01T12:12:55;1.60;;;1.50;;
11877;SDS011;5998;42.676;23.268;2023-02-01T12:15:35;2.10;;;1.40;;
11877;SDS011;5998;42.676;23.268;2023-02-01T12:21:18;5.13;;;1.87;;
11877;SDS011;5998;42.676;23.268;2023-02-01T12:27:02;2.87;;;1.60;;
11877;SDS011;5998;42.676;23.268;2023-02-01T12:29:48;1.50;;;1.37;;
11877;SDS011;5998;42.676;23.268;2023-02-01T12:32:30;1.87;;;1.57;;
11877;SDS011;5998;42.676;23.268;2023-02-01T12:38:15;2.63;;;1.53;;
11877;SDS011;5998;42.676;23.268;2023-02-01T12:40:54;2.23;;;1.70;;
11877;SDS011;5998;42.676;23.268;2023-02-01T12:43:41;4.70;;;1.77;;
11877;SDS011;5998;42.676;23.268;2023-02-01T12:46:14;5.00;;;1.70;;
11877;SDS011;5998;42.676;23.268;2023-02-01T12:48:49;3.07;;;1.60;;
11877;SDS011;5998;42.676;23.268;2023-02-01T12:51:22;3.37;;;1.57;;
11877;SDS011;5998;42.676;23.268;2023-02-01T12:53:52;1.10;;;1.10;;
11877;SDS011;5998;42.676;23.268;2023-02-01T12:56:22;1.30;;;1.20;;
11877;SDS011;5998;42.676;23.268;2023-02-01T12:58:56;3.17;;;1.77;;
11877;SDS011;5998;42.676;23.268;2023-02-01T13:01:26;2.50;;;1.27;;
11877;SDS011;5998;42.676;23.268;2023-02-01T13:04:01;2.10;;;1.60;;
11877;SDS011;5998;42.676;23.268;2023-02-01T13:06:35;1.20;;;1.10;;
11877;SDS011;5998;42.676;23.268;2023-02-01T13:09:08;1.83;;;1.23;;
11877;SDS011;5998;42.676;23.268;2023-02-01T13:11:42;1.83;;;1.60;;
11877;SDS011;5998;42.676;23.268;2023-02-01T13:14:15;2.20;;;1.47;;
11877;SDS011;5998;42.676;23.268;2023-02-01T13:16:52;2.93;;;2.10;;
11877;SDS011;5998;42.676;23.268;2023-02-01T13:19:26;2.37;;;1.70;;
11877;SDS011;5998;42.676;23.268;2023-02-01T13:21:57;4.97;;;1.90;;
11877;SDS011;5998;42.676;23.268;2023-02-01T13:24:30;2.63;;;1.80;;
11877;SDS011;5998;42.676;23.268;2023-02-01T13:27:00;3.33;;;1.70;;
11877;SDS011;5998;42.676;23.268;2023-02-01T13:29:29;1.80;;;1.40;;
11877;SDS011;5998;42.676;23.268;2023-02-01T13:32:03;2.00;;;1.50;;
11877;SDS011;5998;42.676;23.268;2023-02-01T13:34:58;3.73;;;1.63;;
11877;SDS011;5998;42.676;23.268;2023-02-01T13:40:41;1.73;;;1.30;;
11877;SDS011;5998;42.676;23.268;2023-02-01T13:43:13;1.47;;;1.27;;
11877;SDS011;5998;42.676;23.268;2023-02-01T13:45:45;3.10;;;1.40;;
11877;SDS011;5998;42.676;23.268;2023-02-01T13:48:21;1.50;;;1.40;;
11877;SDS011;5998;42.676;23.268;2023-02-01T13:50:54;1.43;;;1.30;;
11877;SDS011;5998;42.676;23.268;2023-02-01T13:53:23;2.90;;;1.50;;
11877;SDS011;5998;42.676;23.268;2023-02-01T13:55:55;1.50;;;1.40;;
11877;SDS011;5998;42.676;23.268;2023-02-01T13:58:29;2.63;;;1.37;;
11877;SDS011;5998;42.676;23.268;2023-02-01T14:04:01;2.40;;;1.67;;
11877;SDS011;5998;42.676;23.268;2023-02-01T14:06:42;4.43;;;1.73;;
11877;SDS011;5998;42.676;23.268;2023-02-01T14:09:12;1.97;;;1.60;;
11877;SDS011;5998;42.676;23.268;2023-02-01T14:11:43;2.50;;;2.00;;
11877;SDS011;5998;42.676;23.268;2023-02-01T14:23:23;4.60;;;2.10;;
11877;SDS011;5998;42.676;23.268;2023-02-01T14:26:02;1.83;;;1.73;;
11877;SDS011;5998;42.676;23.268;2023-02-01T14:28:45;2.73;;;1.97;;
11877;SDS011;5998;42.676;23.268;2023-02-01T14:31:31;4.83;;;2.30;;
11877;SDS011;5998;42.676;23.268;2023-02-01T14:34:18;3.03;;;1.80;;
11877;SDS011;5998;42.676;23.268;2023-02-01T14:36:50;2.40;;;2.07;;
11877;SDS011;5998;42.676;23.268;2023-02-01T14:39:20;3.13;;;2.27;;
11877;SDS011;5998;42.676;23.268;2023-02-01T14:41:52;3.00;;;1.90;;
11877;SDS011;5998;42.676;23.268;2023-02-01T14:44:24;3.57;;;2.30;;
11877;SDS011;5998;42.676;23.268;2023-02-01T14:55:46;3.40;;;2.20;;
11877;SDS011;5998;42.676;23.268;2023-02-01T14:58:16;5.73;;;2.70;;
11877;SDS011;5998;42.676;23.268;2023-02-01T15:00:51;3.80;;;2.47;;
11877;SDS011;5998;42.676;23.268;2023-02-01T15:06:18;4.03;;;1.90;;
11877;SDS011;5998;42.676;23.268;2023-02-01T15:08:49;3.93;;;2.20;;
11877;SDS011;5998;42.676;23.268;2023-02-01T15:11:21;3.13;;;2.30;;
11877;SDS011;5998;42.676;23.268;2023-02-01T15:13:48;4.53;;;2.80;;
11877;SDS011;5998;42.676;23.268;2023-02-01T15:16:16;8.13;;;2.40;;
11877;SDS011;5998;42.676;23.268;2023-02-01T15:18:43;14.43;;;2.53;;
11877;SDS011;5998;42.676;23.268;2023-02-01T15:21:17;2.77;;;1.80;;
11877;SDS011;5998;42.676;23.268;2023-02-01T15:23:45;5.27;;;2.60;;
11877;SDS011;5998;42.676;23.268;2023-02-01T15:28:56;5.63;;;3.33;;
11877;SDS011;5998;42.676;23.268;2023-02-01T15:31:33;4.60;;;3.00;;
11877;SDS011;5998;42.676;23.268;2023-02-01T15:34:01;5.53;;;2.70;;
11877;SDS011;5998;42.676;23.268;2023-02-01T15:36:29;6.03;;;2.87;;
11877;SDS011;5998;42.676;23.268;2023-02-01T15:39:19;4.47;;;3.17;;
11877;SDS011;5998;42.676;23.268;2023-02-01T15:41:51;7.33;;;3.27;;
11877;SDS011;5998;42.676;23.268;2023-02-01T15:44:22;4.97;;;2.80;;
11877;SDS011;5998;42.676;23.268;2023-02-01T15:47:06;4.43;;;3.00;;
11877;SDS011;5998;42.676;23.268;2023-02-01T15:49:39;4.40;;;3.07;;
11877;SDS011;5998;42.676;23.268;2023-02-01T15:52:16;4.63;;;3.03;;
11877;SDS011;5998;42.676;23.268;2023-02-01T15:54:50;3.70;;;2.40;;
11877;SDS011;5998;42.676;23.268;2023-02-01T15:57:20;4.83;;;2.50;;
11877;SDS011;5998;42.676;23.268;2023-02-01T15:59:55;4.13;;;2.20;;
11877;SDS011;5998;42.676;23.268;2023-02-01T16:02:28;3.57;;;2.53;;
11877;SDS011;5998;42.676;23.268;2023-02-01T16:04:59;2.87;;;2.00;;